Time;durP1;ratioP1;P1;durP2;ratioP2;P2;SDS_P1;SDS_P2;PMS_P1;PMS_P2;Temp;Humidity;BMP_temperature;BMP_pressure;BME280_temperature;BME280_humidity;BME280_pressure;Samples;Min_cycle;Max_cycle;Signal;HPM_P1;HPM_P2
2021/03/04 00:02:25;;;;;;;17.60;10.93;;;;;;;25.07;34.15;100379.66;4484118;32;34486;-60
2021/03/04 00:04:52;;;;;;;18.52;10.80;;;;;;;25.05;34.16;100379.03;4484127;32;33529;-61
2021/03/04 00:07:19;;;;;;;18.15;10.98;;;;;;;25.03;34.30;100378.41;4483855;32;33351;-70
2021/03/04 00:09:46;;;;;;;19.12;10.88;;;;;;;25.03;34.33;100372.94;4484249;32;33802;-49
2021/03/04 00:12:13;;;;;;;20.48;10.20;;;;;;;25.01;34.34;100361.44;4484060;32;34321;-58
2021/03/04 00:14:40;;;;;;;22.20;11.60;;;;;;;25.01;34.35;100360.59;4483871;32;35089;-68
2021/03/04 00:17:08;;;;;;;16.58;10.40;;;;;;;25.00;34.45;100359.75;4482856;32;33463;-57
2021/03/04 00:19:35;;;;;;;19.27;10.20;;;;;;;24.98;34.44;100350.94;4467874;31;33855;-75
2021/03/04 00:22:03;;;;;;;17.73;10.98;;;;;;;24.99;34.45;100357.25;4482723;32;33813;-63
2021/03/04 00:24:30;;;;;;;19.33;10.80;;;;;;;24.97;34.51;100354.75;4482813;32;33354;-53
2021/03/04 00:26:58;;;;;;;15.98;10.82;;;;;;;24.94;34.51;100344.25;4482571;32;34176;-62
2021/03/04 00:29:25;;;;;;;17.62;10.32;;;;;;;24.93;34.51;100343.44;4477181;32;32854;-59
2021/03/04 00:31:52;;;;;;;17.98;10.30;;;;;;;24.92;34.48;100333.56;4482742;32;32941;-64
2021/03/04 00:34:20;;;;;;;15.65;10.32;;;;;;;24.93;34.53;100334.41;4480677;32;34137;-75
2021/03/04 00:36:47;;;;;;;18.17;10.80;;;;;;;24.90;34.60;100318.47;4482659;32;33304;-63
2021/03/04 00:39:13;;;;;;;16.33;10.30;;;;;;;24.90;34.89;100332.09;4482602;32;34621;-61
2021/03/04 00:41:41;;;;;;;21.12;10.60;;;;;;;24.89;34.82;100328.56;4482475;32;34914;-75
2021/03/04 00:44:08;;;;;;;17.62;10.77;;;;;;;24.89;34.79;100314.91;4472234;32;33710;-60
2021/03/04 00:46:38;;;;;;;20.27;10.77;;;;;;;24.88;34.82;100315.13;4484006;32;34473;-57
2021/03/04 00:49:21;;;;;;;17.85;10.27;;;;;;;24.87;34.78;100313.47;4482617;32;33971;-66
2021/03/04 00:51:48;;;;;;;21.77;10.65;;;;;;;24.86;34.90;100311.81;4478122;32;33847;-66
2021/03/04 00:54:15;;;;;;;20.12;10.07;;;;;;;24.84;34.77;100314.75;4467878;32;33736;-56
2021/03/04 00:56:42;;;;;;;18.37;10.40;;;;;;;24.82;34.78;100308.69;4468009;32;34140;-57
2021/03/04 00:59:09;;;;;;;16.27;10.02;;;;;;;24.81;34.78;100303.47;4468304;32;33787;-69
2021/03/04 01:01:37;;;;;;;14.45;9.75;;;;;;;24.81;34.75;100298.00;4477273;32;34512;-50
2021/03/04 01:04:04;;;;;;;20.80;11.27;;;;;;;24.80;34.84;100299.88;4483350;32;33771;-72
2021/03/04 01:06:31;;;;;;;17.48;10.05;;;;;;;24.78;34.89;100292.97;4476955;31;33195;-57
2021/03/04 01:08:58;;;;;;;14.32;9.02;;;;;;;24.78;34.82;100287.50;4483465;31;34580;-53
2021/03/04 01:11:25;;;;;;;17.42;9.55;;;;;;;24.77;34.92;100283.12;4483583;32;33937;-67
2021/03/04 01:13:52;;;;;;;15.50;9.93;;;;;;;24.76;34.90;100286.88;4483242;32;34462;-55
2021/03/04 01:16:20;;;;;;;16.40;9.95;;;;;;;24.76;35.04;100279.56;4476258;32;33941;-59
2021/03/04 01:18:47;;;;;;;17.17;9.38;;;;;;;24.74;35.24;100269.91;4477217;32;34683;-76
2021/03/04 01:21:14;;;;;;;16.02;9.80;;;;;;;24.75;35.18;100282.50;4482651;32;35007;-76
2021/03/04 01:23:41;;;;;;;17.87;9.52;;;;;;;24.72;35.28;100274.78;4467559;32;33587;-57
2021/03/04 01:26:08;;;;;;;15.98;8.82;;;;;;;24.71;35.36;100271.19;4472208;32;34024;-70
2021/03/04 01:28:35;;;;;;;14.65;9.25;;;;;;;24.71;35.28;100270.34;4483264;31;33765;-59
2021/03/04 01:31:03;;;;;;;15.85;9.55;;;;;;;24.70;35.20;100266.78;4483151;32;34670;-54
2021/03/04 01:33:30;;;;;;;13.62;9.07;;;;;;;24.69;35.33;100262.41;4483093;32;33567;-71
2021/03/04 01:35:58;;;;;;;17.20;8.95;;;;;;;24.69;35.13;100256.94;4483066;32;34240;-52
2021/03/04 01:38:26;;;;;;;17.00;9.75;;;;;;;24.68;35.32;100249.81;4483037;32;33745;-65
2021/03/04 01:40:53;;;;;;;15.85;9.23;;;;;;;24.67;35.34;100251.72;4483093;32;34678;-51
2021/03/04 01:43:20;;;;;;;15.07;9.18;;;;;;;24.67;35.34;100248.16;4474298;32;33778;-65
2021/03/04 01:45:47;;;;;;;15.07;8.85;;;;;;;24.66;35.34;100235.56;4471057;32;33343;-64
2021/03/04 01:48:15;;;;;;;18.98;9.23;;;;;;;24.65;35.38;100233.87;4485062;32;33759;-58
2021/03/04 01:50:42;;;;;;;15.93;8.77;;;;;;;24.64;35.35;100241.25;4485049;32;34705;-64
2021/03/04 01:53:09;;;;;;;13.23;8.55;;;;;;;24.63;35.34;100225.94;4483809;32;34617;-59
2021/03/04 01:55:36;;;;;;;20.40;9.27;;;;;;;24.62;35.35;100232.47;4483879;32;33347;-49
2021/03/04 01:58:03;;;;;;;16.70;8.88;;;;;;;24.61;35.36;100225.31;4485107;32;33832;-55
2021/03/04 02:00:31;;;;;;;16.50;9.07;;;;;;;24.60;35.41;100217.34;4473529;32;33536;-59
2021/03/04 02:03:16;;;;;;;14.95;8.55;;;;;;;24.59;35.38;100213.81;4469620;32;34362;-66
2021/03/04 02:05:43;;;;;;;13.88;8.70;;;;;;;24.58;35.35;100208.56;4469181;32;33030;-53
2021/03/04 02:08:45;;;;;;;17.30;9.07;;;;;;;24.58;35.36;100211.31;4469257;32;35448;-68
2021/03/04 02:11:36;;;;;;;15.75;8.70;;;;;;;24.59;35.42;100211.06;4476316;32;34595;-69
2021/03/04 02:14:14;;;;;;;13.02;8.05;;;;;;;24.58;35.39;100201.22;4483573;32;34553;-68
2021/03/04 02:16:47;;;;;;;14.60;8.57;;;;;;;24.55;35.32;100204.38;4482781;32;33361;-56
2021/03/04 02:19:52;;;;;;;15.90;9.05;;;;;;;24.53;35.46;100203.78;4470982;32;33801;-65
2021/03/04 02:22:46;;;;;;;15.80;8.93;;;;;;;24.55;35.44;100198.09;4484912;32;34014;-68
2021/03/04 02:25:20;;;;;;;13.60;8.27;;;;;;;24.50;35.49;100198.78;4483701;32;33527;-62
2021/03/04 02:27:50;;;;;;;15.55;8.90;;;;;;;24.50;35.57;100197.94;4471191;32;34234;-62
2021/03/04 02:30:19;;;;;;;20.40;8.80;;;;;;;24.48;35.60;100190.00;4484961;32;33809;-56
2021/03/04 02:32:51;;;;;;;14.48;8.45;;;;;;;24.50;35.71;100189.75;4485042;32;34787;-74
2021/03/04 02:35:21;;;;;;;16.80;9.35;;;;;;;24.49;35.75;100190.81;4482761;32;34241;-60
2021/03/04 02:37:51;;;;;;;13.52;8.10;;;;;;;24.47;35.80;100185.56;4483576;32;34094;-59
2021/03/04 02:40:19;;;;;;;15.57;8.88;;;;;;;24.48;35.71;100189.13;4483516;32;33891;-54
2021/03/04 02:42:46;;;;;;;14.02;8.32;;;;;;;24.45;35.79;100190.44;4483550;32;33712;-69
2021/03/04 02:45:14;;;;;;;20.88;9.02;;;;;;;24.46;35.86;100188.53;4483545;32;33658;-62
2021/03/04 02:47:41;;;;;;;14.48;8.57;;;;;;;24.45;35.76;100186.88;4484802;32;33357;-60
2021/03/04 02:50:09;;;;;;;14.27;8.82;;;;;;;24.45;35.85;100184.16;4483031;32;33476;-70
2021/03/04 02:52:36;;;;;;;12.73;7.85;;;;;;;24.44;35.81;100191.50;4466085;32;33954;-65
2021/03/04 02:55:05;;;;;;;12.65;7.65;;;;;;;24.43;35.97;100179.75;4475127;32;33405;-59
2021/03/04 02:57:32;;;;;;;15.75;8.85;;;;;;;24.43;35.82;100182.47;4480895;32;34323;-66
2021/03/04 02:59:59;;;;;;;17.08;8.85;;;;;;;24.43;35.86;100178.88;4483312;32;33795;-62
2021/03/04 03:02:27;;;;;;;14.07;8.50;;;;;;;24.42;36.03;100172.59;4470279;32;33812;-70
2021/03/04 03:04:54;;;;;;;18.37;8.85;;;;;;;24.40;35.87;100177.47;4470505;32;33678;-74
2021/03/04 03:07:22;;;;;;;23.45;8.18;;;;;;;24.42;36.00;100171.78;4469687;32;33362;-77
2021/03/04 03:09:49;;;;;;;16.08;7.60;;;;;;;24.40;36.19;100177.47;4470258;32;33756;-53
2021/03/04 03:12:16;;;;;;;18.92;8.73;;;;;;;24.41;35.94;100175.56;4483405;32;33825;-59
2021/03/04 03:14:43;;;;;;;15.10;7.62;;;;;;;24.39;36.05;100166.78;4484775;32;33679;-77
2021/03/04 03:17:11;;;;;;;15.85;9.07;;;;;;;24.38;35.93;100165.94;4470304;32;32936;-66
2021/03/04 03:19:57;;;;;;;15.88;7.20;;;;;;;24.37;36.02;100169.72;4484768;32;33860;-67
2021/03/04 03:22:24;;;;;;;16.45;7.85;;;;;;;24.38;36.02;100163.19;4484455;32;34710;-66
2021/03/04 03:24:51;;;;;;;15.50;7.90;;;;;;;24.37;36.13;100155.25;4478438;32;34316;-69
2021/03/04 03:27:18;;;;;;;14.27;8.10;;;;;;;24.36;36.19;100159.88;4467592;32;33346;-61
2021/03/04 03:29:45;;;;;;;20.35;8.13;;;;;;;24.35;36.14;100147.28;4468856;32;33918;-62
2021/03/04 03:32:12;;;;;;;14.55;7.97;;;;;;;24.36;36.31;100145.37;4468579;32;33882;-65
2021/03/04 03:34:40;;;;;;;14.05;8.20;;;;;;;24.35;36.21;100143.72;4454754;32;34462;-57
2021/03/04 03:37:07;;;;;;;14.27;8.25;;;;;;;24.34;36.19;100142.03;4468831;32;33424;-78
2021/03/04 03:39:34;;;;;;;15.82;8.27;;;;;;;24.34;36.17;100142.03;4467286;32;34009;-60
2021/03/04 03:42:02;;;;;;;14.87;7.75;;;;;;;24.32;36.15;100134.06;4469068;32;33881;-60
2021/03/04 03:44:29;;;;;;;12.68;7.82;;;;;;;24.32;36.19;100136.81;4454644;32;33728;-62
2021/03/04 03:46:56;;;;;;;14.30;8.25;;;;;;;24.32;36.26;100141.44;4471966;32;33393;-77
2021/03/04 03:49:23;;;;;;;16.77;8.07;;;;;;;24.32;36.23;100146.88;4470111;32;33758;-76
2021/03/04 03:51:51;;;;;;;14.50;8.23;;;;;;;24.30;36.36;100144.38;4470365;32;33784;-76
2021/03/04 03:54:18;;;;;;;14.85;7.45;;;;;;;24.30;36.23;100138.94;4470280;32;33432;-77
2021/03/04 03:56:45;;;;;;;16.65;8.02;;;;;;;24.30;36.41;100147.12;4483027;32;33057;-77
2021/03/04 03:59:12;;;;;;;14.52;7.57;;;;;;;24.28;36.25;100145.66;4470061;32;34433;-55
2021/03/04 04:01:39;;;;;;;13.73;7.35;;;;;;;24.29;36.25;100139.97;4469885;32;34039;-76
2021/03/04 04:04:07;;;;;;;14.15;8.30;;;;;;;24.28;36.17;100137.47;4482930;32;34330;-75
2021/03/04 04:06:34;;;;;;;11.18;7.20;;;;;;;24.27;36.20;100131.19;4484055;32;33138;-74
2021/03/04 04:09:01;;;;;;;14.40;7.47;;;;;;;24.26;36.23;100118.63;4483139;32;33603;-76
2021/03/04 04:11:29;;;;;;;12.50;7.78;;;;;;;24.26;36.20;100120.50;4470066;32;33533;-71
2021/03/04 04:13:56;;;;;;;13.48;7.22;;;;;;;24.25;36.32;100119.69;4482711;32;33591;-75
2021/03/04 04:16:24;;;;;;;11.65;7.85;;;;;;;24.26;36.27;100123.25;4483122;32;33421;-78
2021/03/04 04:18:52;;;;;;;12.75;8.00;;;;;;;24.25;36.30;100116.09;4484186;32;34750;-77
2021/03/04 04:21:19;;;;;;;10.73;7.18;;;;;;;24.24;36.28;100120.72;4484422;32;35062;-77
2021/03/04 04:23:47;;;;;;;12.30;7.60;;;;;;;24.23;36.26;100112.78;4482682;32;34310;-78
2021/03/04 04:26:14;;;;;;;12.48;7.80;;;;;;;24.23;36.34;100116.31;4482897;32;33239;-77
2021/03/04 04:28:41;;;;;;;14.00;7.85;;;;;;;24.23;36.34;100110.03;4483838;32;33881;-77
2021/03/04 04:31:08;;;;;;;14.32;8.00;;;;;;;24.22;36.37;100102.94;4483807;32;34509;-63
2021/03/04 04:33:36;;;;;;;13.75;7.30;;;;;;;24.22;36.22;100100.22;4483578;32;33759;-77
2021/03/04 04:36:04;;;;;;;10.85;6.68;;;;;;;24.22;36.33;100105.66;4483948;32;33386;-68
2021/03/04 04:38:31;;;;;;;12.55;7.78;;;;;;;24.21;36.33;100101.28;4483893;32;34707;-76
2021/03/04 04:40:58;;;;;;;11.30;6.70;;;;;;;24.19;36.30;100094.13;4483982;32;33868;-77
2021/03/04 04:43:26;;;;;;;10.25;6.47;;;;;;;24.19;36.25;100093.28;4483805;32;33716;-75
2021/03/04 04:45:53;;;;;;;15.55;7.35;;;;;;;24.18;36.34;100087.00;4483734;32;34121;-73
2021/03/04 04:48:21;;;;;;;11.27;7.00;;;;;;;24.18;36.38;100087.00;4484109;32;33813;-76
2021/03/04 04:51:07;;;;;;;19.37;7.25;;;;;;;24.17;36.29;100081.78;4482947;32;34647;-77
2021/03/04 04:53:35;;;;;;;18.40;7.43;;;;;;;24.18;36.41;100086.19;4483740;32;34288;-76
2021/03/04 04:56:02;;;;;;;14.23;8.02;;;;;;;24.18;36.48;100089.75;4483798;32;33431;-77
2021/03/04 04:58:29;;;;;;;19.65;7.15;;;;;;;24.16;36.39;100078.22;4483731;32;33823;-76
2021/03/04 05:00:57;;;;;;;11.73;7.28;;;;;;;24.16;36.44;100071.94;4483792;32;35376;-76
2021/03/04 05:03:24;;;;;;;11.98;7.05;;;;;;;24.15;36.42;100076.56;4482569;32;34399;-59
2021/03/04 05:05:51;;;;;;;12.27;7.18;;;;;;;24.15;36.44;100067.53;4485781;31;33412;-57
2021/03/04 05:08:18;;;;;;;11.98;7.35;;;;;;;24.16;36.40;100077.41;4467757;32;34721;-65
2021/03/04 05:10:45;;;;;;;12.55;7.28;;;;;;;24.14;36.46;100063.97;4474592;32;33631;-61
2021/03/04 05:13:13;;;;;;;11.60;6.53;;;;;;;24.14;36.45;100068.59;4483338;32;34652;-64
2021/03/04 05:15:40;;;;;;;10.48;6.82;;;;;;;24.13;36.45;100065.03;4483535;32;33324;-68
2021/03/04 05:18:07;;;;;;;10.70;6.85;;;;;;;24.13;36.42;100058.75;4483364;32;33832;-56
2021/03/04 05:20:34;;;;;;;12.52;7.12;;;;;;;24.12;36.42;100060.66;4483028;32;33926;-54
2021/03/04 05:23:01;;;;;;;10.57;6.70;;;;;;;24.11;36.25;100050.00;4482544;32;33649;-70
2021/03/04 05:25:28;;;;;;;15.23;7.70;;;;;;;24.12;36.30;100052.47;4467856;32;33256;-62
2021/03/04 05:27:55;;;;;;;10.13;6.32;;;;;;;24.11;36.46;100050.81;4467539;32;33516;-54
2021/03/04 05:30:23;;;;;;;11.30;6.68;;;;;;;24.11;36.48;100039.91;4467618;32;33718;-63
2021/03/04 05:32:50;;;;;;;11.90;6.70;;;;;;;24.11;36.45;100037.19;4467754;32;33709;-54
2021/03/04 05:35:18;;;;;;;11.10;6.90;;;;;;;24.09;36.41;100042.00;4467644;32;33348;-62
2021/03/04 05:37:45;;;;;;;11.70;6.80;;;;;;;24.09;36.42;100031.09;4467458;32;34696;-56
2021/03/04 05:40:12;;;;;;;11.05;7.03;;;;;;;24.09;36.49;100031.09;4467802;32;33995;-56
2021/03/04 05:42:41;;;;;;;16.25;7.15;;;;;;;24.08;36.42;100028.62;4467265;32;34596;-72
2021/03/04 05:45:11;;;;;;;12.23;6.83;;;;;;;24.07;36.45;100022.34;4466032;32;33277;-57
2021/03/04 05:47:40;;;;;;;14.10;6.87;;;;;;;24.09;36.53;100022.94;4476801;32;33940;-56
2021/03/04 05:50:07;;;;;;;11.93;7.15;;;;;;;24.08;36.46;100020.44;4468911;32;34655;-52
2021/03/04 05:52:35;;;;;;;11.07;6.15;;;;;;;24.07;36.50;100032.41;4482965;32;34797;-62
2021/03/04 05:55:03;;;;;;;12.75;6.57;;;;;;;24.05;36.53;100024.44;4482986;32;32967;-67
2021/03/04 05:57:30;;;;;;;13.02;6.93;;;;;;;24.06;36.47;100031.56;4482117;32;33728;-61
2021/03/04 05:59:57;;;;;;;13.18;6.53;;;;;;;24.06;36.50;100030.72;4482820;32;33723;-70
2021/03/04 06:02:24;;;;;;;11.68;6.47;;;;;;;24.04;36.51;100030.94;4482357;32;33402;-59
2021/03/04 06:04:52;;;;;;;12.35;6.57;;;;;;;24.04;36.50;100032.84;4482683;32;33075;-63
2021/03/04 06:07:19;;;;;;;12.98;6.35;;;;;;;24.03;36.51;100032.03;4482609;32;33596;-56
2021/03/04 06:09:46;;;;;;;10.20;6.40;;;;;;;24.04;36.47;100032.84;4482497;32;33794;-60
2021/03/04 06:12:13;;;;;;;13.98;7.03;;;;;;;24.02;36.44;100030.34;4482394;32;33736;-60
2021/03/04 06:14:40;;;;;;;11.57;6.57;;;;;;;24.03;36.46;100031.19;4482615;32;33351;-59
2021/03/04 06:17:25;;;;;;;12.20;6.78;;;;;;;24.02;36.47;100030.34;4482412;32;34692;-68
2021/03/04 06:19:57;;;;;;;11.85;6.28;;;;;;;24.03;36.39;100023.00;4482583;32;33833;-57
2021/03/04 06:22:32;;;;;;;13.80;7.30;;;;;;;24.02;36.52;100029.53;4482554;32;34546;-62
2021/03/04 06:25:10;;;;;;;12.18;6.50;;;;;;;24.01;36.58;100025.94;4482557;32;33302;-59
2021/03/04 06:27:39;;;;;;;9.88;6.55;;;;;;;23.99;36.52;100029.97;4482428;32;33701;-67
2021/03/04 06:30:07;;;;;;;15.05;6.57;;;;;;;23.99;36.59;100036.25;4482170;32;33918;-57
2021/03/04 06:32:35;;;;;;;12.30;6.40;;;;;;;24.01;36.60;100033.28;4484684;32;33479;-64
2021/03/04 06:35:03;;;;;;;11.10;5.97;;;;;;;23.98;36.45;100029.12;4474289;32;32598;-63
2021/03/04 06:37:32;;;;;;;10.10;6.37;;;;;;;23.98;36.50;100031.03;4468956;32;33962;-66
2021/03/04 06:39:59;;;;;;;10.45;5.53;;;;;;;23.98;36.49;100034.59;4469113;32;33824;-60
2021/03/04 06:42:27;;;;;;;11.25;6.15;;;;;;;23.97;36.55;100032.94;4468971;32;33666;-62
2021/03/04 06:44:54;;;;;;;10.07;6.03;;;;;;;23.97;36.56;100029.34;4467993;32;33010;-59
2021/03/04 06:47:26;;;;;;;10.25;6.20;;;;;;;23.97;36.58;100026.63;4476710;32;34328;-68
2021/03/04 06:49:54;;;;;;;10.52;6.35;;;;;;;23.97;36.54;100026.63;4484520;32;33713;-62
2021/03/04 06:52:39;;;;;;;30.85;6.57;;;;;;;23.95;36.45;100021.41;4484852;32;33555;-61
2021/03/04 06:55:13;;;;;;;14.10;6.78;;;;;;;23.96;36.66;100014.88;4484506;32;34000;-65
2021/03/04 06:57:40;;;;;;;10.93;6.62;;;;;;;23.96;36.60;100019.50;4484593;32;34579;-50
2021/03/04 07:00:18;;;;;;;11.60;6.18;;;;;;;23.95;36.63;100015.12;4483344;32;34924;-64
2021/03/04 07:02:55;;;;;;;10.93;6.05;;;;;;;23.95;36.60;100018.66;4484607;32;34552;-72
2021/03/04 07:05:26;;;;;;;24.75;6.30;;;;;;;23.96;36.41;100019.50;4484612;32;33289;-63
2021/03/04 07:07:54;;;;;;;10.40;6.12;;;;;;;23.93;36.50;100018.91;4484462;32;34842;-68
2021/03/04 07:10:23;;;;;;;14.00;6.53;;;;;;;23.93;36.56;100021.62;4484936;32;33742;-73
2021/03/04 07:12:50;;;;;;;11.95;5.78;;;;;;;23.92;36.59;100017.25;4484589;32;33706;-64
2021/03/04 07:15:18;;;;;;;19.45;6.30;;;;;;;23.93;36.62;100018.06;4483031;32;34371;-75
2021/03/04 07:17:49;;;;;;;11.88;5.90;;;;;;;23.92;36.60;100016.37;4484462;32;34929;-64
2021/03/04 07:20:19;;;;;;;11.85;6.32;;;;;;;23.92;36.57;100016.37;4484417;32;33674;-72
2021/03/04 07:23:04;;;;;;;9.55;5.82;;;;;;;23.92;36.62;100005.50;4484527;32;33837;-66
2021/03/04 07:25:31;;;;;;;10.07;6.00;;;;;;;23.93;36.56;100015.34;4484529;32;33426;-62
2021/03/04 07:27:58;;;;;;;12.02;6.30;;;;;;;23.92;36.62;100016.37;4469985;32;35271;-60
2021/03/04 07:30:25;;;;;;;13.70;6.32;;;;;;;23.91;36.58;100007.38;4483266;32;34685;-60
2021/03/04 07:32:53;;;;;;;11.40;5.60;;;;;;;23.90;36.52;100005.72;4483642;32;33682;-60
2021/03/04 07:35:20;;;;;;;10.85;5.10;;;;;;;23.91;36.53;100003.81;4473475;32;33006;-70
2021/03/04 07:37:47;;;;;;;14.00;6.55;;;;;;;23.90;36.55;100000.28;4482763;32;34812;-57
2021/03/04 07:40:14;;;;;;;13.25;6.20;;;;;;;23.90;36.57;100002.16;4483157;32;33921;-62
2021/03/04 07:42:42;;;;;;;10.90;6.25;;;;;;;23.90;36.51;99997.53;4483933;32;33677;-68
2021/03/04 07:45:15;;;;;;;9.27;5.57;;;;;;;23.90;36.61;99994.00;4484387;32;33106;-55
2021/03/04 07:47:42;;;;;;;9.50;5.47;;;;;;;23.90;36.51;99989.38;4484152;32;33850;-64
2021/03/04 07:50:19;;;;;;;12.30;6.22;;;;;;;23.90;36.47;99992.09;4484627;32;33876;-49
2021/03/04 07:52:47;;;;;;;12.13;6.40;;;;;;;23.91;36.51;99984.75;4485849;31;35009;-51
2021/03/04 07:55:15;;;;;;;24.00;6.65;;;;;;;23.89;36.49;99986.88;4481160;32;33312;-65
2021/03/04 07:57:46;;;;;;;11.25;6.35;;;;;;;23.90;36.50;99977.63;4480529;32;33690;-57
2021/03/04 08:00:17;;;;;;;10.82;6.07;;;;;;;23.89;36.58;99984.16;4484019;32;33784;-50
2021/03/04 08:02:44;;;;;;;12.13;5.85;;;;;;;23.90;36.45;99980.38;4483999;32;34626;-62
2021/03/04 08:05:15;;;;;;;9.30;5.55;;;;;;;23.90;36.48;99978.47;4483307;32;33253;-66
2021/03/04 08:07:47;;;;;;;11.18;5.85;;;;;;;23.89;36.41;99971.34;4483819;32;34356;-61
2021/03/04 08:10:21;;;;;;;21.23;8.25;;;;;;;23.90;36.41;99977.63;4484734;31;34698;-53
2021/03/04 08:12:52;;;;;;;21.23;10.93;;;;;;;23.91;35.53;99974.69;4485138;31;34326;-54
2021/03/04 08:15:33;;;;;;;26.67;9.32;;;;;;;23.87;32.30;99965.28;4484161;32;34194;-58
2021/03/04 08:18:02;;;;;;;17.00;8.02;;;;;;;23.85;33.21;99972.88;4475348;32;34784;-67
2021/03/04 08:20:30;;;;;;;21.83;8.10;;;;;;;23.83;33.51;99966.81;4473227;32;33467;-57
2021/03/04 08:22:57;;;;;;;14.80;9.00;;;;;;;23.83;33.92;99963.25;4482216;32;33906;-55
2021/03/04 08:25:29;;;;;;;18.50;8.27;;;;;;;23.82;34.03;99959.69;4480891;32;34049;-63
2021/03/04 08:27:56;;;;;;;24.05;9.35;;;;;;;23.83;34.33;99955.91;4483364;32;34350;-54
2021/03/04 08:30:34;;;;;;;16.20;7.72;;;;;;;23.87;34.41;99948.09;4483685;32;34926;-56
2021/03/04 08:33:06;;;;;;;23.08;8.45;;;;;;;23.94;34.48;99951.59;4483597;32;33673;-53
2021/03/04 08:35:37;;;;;;;20.15;7.65;;;;;;;24.05;34.48;99953.56;4483732;32;34519;-57
2021/03/04 08:38:06;;;;;;;18.92;7.25;;;;;;;24.18;34.43;99947.13;4483709;32;33726;-55
2021/03/04 08:40:46;;;;;;;18.30;8.27;;;;;;;24.30;34.35;99953.50;4483459;32;34663;-62
2021/03/04 08:43:18;;;;;;;17.83;7.70;;;;;;;24.48;34.24;99943.62;4483529;32;34239;-47
2021/03/04 08:45:46;;;;;;;15.52;7.30;;;;;;;24.62;34.11;99940.53;4481030;31;34226;-50
2021/03/04 08:48:14;;;;;;;14.23;6.75;;;;;;;24.76;34.01;99934.84;4480481;32;34217;-52
2021/03/04 08:50:44;;;;;;;16.52;7.12;;;;;;;24.89;34.14;99931.94;4483510;32;33702;-53
2021/03/04 08:53:16;;;;;;;14.98;7.82;;;;;;;25.01;34.07;99934.72;4482580;32;33745;-56
2021/03/04 08:55:54;;;;;;;17.08;8.20;;;;;;;25.12;33.46;99940.22;4483708;32;34051;-54
2021/03/04 08:58:27;;;;;;;16.45;8.70;;;;;;;25.23;32.96;99933.13;4483154;32;34870;-65
2021/03/04 09:01:04;;;;;;;22.30;8.50;;;;;;;25.30;32.88;99933.00;4483482;32;33829;-59
2021/03/04 09:03:40;;;;;;;18.35;8.90;;;;;;;25.38;32.45;99929.94;4483377;32;33933;-54
2021/03/04 09:06:14;;;;;;;18.60;9.48;;;;;;;25.42;32.29;99931.13;4483580;32;33384;-61
2021/03/04 09:08:44;;;;;;;15.20;9.18;;;;;;;25.45;32.00;99934.19;4483422;32;33868;-51
2021/03/04 09:11:23;;;;;;;17.95;9.70;;;;;;;25.47;31.96;99928.53;4483442;32;34480;-55
2021/03/04 09:13:51;;;;;;;17.62;8.82;;;;;;;25.50;31.60;99925.28;4483370;32;33518;-49
2021/03/04 09:16:18;;;;;;;20.80;10.50;;;;;;;25.51;31.51;99917.94;4482236;32;34291;-59
2021/03/04 09:18:46;;;;;;;16.70;10.48;;;;;;;25.49;31.55;99915.44;4483179;32;34405;-48
2021/03/04 09:21:13;;;;;;;15.73;9.75;;;;;;;25.49;31.58;99911.88;4483350;32;33563;-53
2021/03/04 09:23:41;;;;;;;20.67;9.90;;;;;;;25.49;31.79;99906.41;4481951;32;33694;-57
2021/03/04 09:26:08;;;;;;;16.23;9.90;;;;;;;25.47;31.69;99903.94;4483161;32;33347;-54
2021/03/04 09:28:38;;;;;;;14.57;9.85;;;;;;;25.46;31.47;99896.81;4481537;32;33728;-62
2021/03/04 09:31:13;;;;;;;20.05;11.75;;;;;;;25.42;31.70;99898.34;4481615;32;33785;-55
2021/03/04 09:33:41;;;;;;;17.10;10.25;;;;;;;25.41;31.19;99892.06;4482022;32;33847;-62
2021/03/04 09:36:08;;;;;;;17.17;10.63;;;;;;;25.37;31.37;99888.13;4483187;32;34041;-53
2021/03/04 09:38:37;;;;;;;17.48;11.80;;;;;;;25.33;30.85;99886.94;4482748;32;33742;-66
2021/03/04 09:41:13;;;;;;;18.90;11.52;;;;;;;25.30;30.21;99886.56;4481839;32;33802;-47
2021/03/04 09:43:50;;;;;;;19.60;11.65;;;;;;;25.27;30.26;99885.13;4482815;32;33803;-52
2021/03/04 09:46:30;;;;;;;14.93;11.18;;;;;;;25.25;30.56;99881.81;4483009;32;34569;-56
2021/03/04 09:49:17;;;;;;;26.30;10.68;;;;;;;25.25;30.67;99873.63;4482908;32;34019;-54
2021/03/04 09:51:47;;;;;;;16.17;11.12;;;;;;;25.22;30.89;99873.28;4483040;32;33922;-48
2021/03/04 09:54:25;;;;;;;17.33;10.73;;;;;;;25.16;31.09;99878.59;4482738;32;33663;-50
2021/03/04 09:57:09;;;;;;;22.90;12.10;;;;;;;25.14;31.20;99875.31;4482797;32;33951;-48
2021/03/04 09:59:43;;;;;;;16.85;10.13;;;;;;;25.13;31.18;99873.63;4482590;32;33849;-59
2021/03/04 10:02:11;;;;;;;17.02;10.77;;;;;;;25.09;31.28;99867.00;4482695;32;33836;-53
2021/03/04 10:04:50;;;;;;;19.55;10.52;;;;;;;25.07;31.46;99874.56;4482450;32;33651;-47
2021/03/04 10:07:24;;;;;;;17.30;10.23;;;;;;;25.05;31.55;99873.94;4484559;32;34388;-63
2021/03/04 10:09:52;;;;;;;15.85;9.75;;;;;;;25.02;31.73;99865.41;4481697;31;34517;-54
2021/03/04 10:12:18;;;;;;;16.37;10.43;;;;;;;25.01;31.87;99870.03;4483645;31;35191;-59
2021/03/04 10:14:47;;;;;;;17.37;9.93;;;;;;;24.99;32.01;99872.13;4467998;32;34835;-65
2021/03/04 10:17:14;;;;;;;16.20;9.55;;;;;;;24.98;32.13;99862.28;4474199;31;34158;-53
2021/03/04 10:19:42;;;;;;;15.50;10.13;;;;;;;24.97;32.26;99863.37;4500698;31;33727;-63
2021/03/04 10:22:09;;;;;;;14.73;10.02;;;;;;;24.96;32.35;99858.16;4500457;31;33857;-51
2021/03/04 10:24:36;;;;;;;14.87;9.95;;;;;;;24.94;32.38;99852.91;4481722;31;34606;-66
2021/03/04 10:27:04;;;;;;;20.15;10.68;;;;;;;24.91;32.47;99856.13;4482544;31;33275;-59
2021/03/04 10:29:31;;;;;;;20.35;9.48;;;;;;;24.90;32.57;99857.16;4484248;32;34638;-68
2021/03/04 10:31:58;;;;;;;17.45;9.95;;;;;;;24.89;32.64;99852.78;4484295;32;34193;-62
2021/03/04 10:34:26;;;;;;;16.48;9.60;;;;;;;24.88;32.81;99848.41;4483417;32;34437;-60
2021/03/04 10:36:53;;;;;;;17.25;9.27;;;;;;;24.87;32.92;99849.47;4483537;32;33102;-66
2021/03/04 10:39:22;;;;;;;16.55;8.18;;;;;;;24.86;33.03;99845.09;4484502;32;33525;-65
2021/03/04 10:41:49;;;;;;;18.95;9.48;;;;;;;24.82;33.02;99841.16;4484492;32;33827;-67
2021/03/04 10:44:17;;;;;;;13.80;9.20;;;;;;;24.81;33.10;99844.97;4484746;32;33332;-67
2021/03/04 10:46:44;;;;;;;18.50;9.02;;;;;;;24.80;33.14;99841.37;4484528;32;33386;-67
2021/03/04 10:49:11;;;;;;;19.02;9.23;;;;;;;24.78;33.22;99842.69;4484521;32;33883;-62
2021/03/04 10:51:38;;;;;;;14.70;8.90;;;;;;;24.77;33.29;99847.31;4484477;32;33693;-67
2021/03/04 10:54:06;;;;;;;20.95;8.80;;;;;;;24.77;33.36;99846.50;4484254;32;34400;-68
2021/03/04 10:56:32;;;;;;;13.40;8.50;;;;;;;24.76;33.40;99845.66;4484620;32;32502;-65
2021/03/04 10:59:00;;;;;;;16.58;8.10;;;;;;;24.76;33.46;99842.94;4484527;32;33750;-49
2021/03/04 11:01:27;;;;;;;16.33;8.65;;;;;;;24.78;33.46;99832.59;4484316;32;35412;-68
2021/03/04 11:03:54;;;;;;;15.82;8.38;;;;;;;24.76;33.50;99834.75;4484413;32;34437;-63
2021/03/04 11:06:21;;;;;;;13.88;8.48;;;;;;;24.76;33.57;99836.62;4484438;32;34167;-66
2021/03/04 11:08:48;;;;;;;14.90;7.57;;;;;;;24.76;33.59;99839.34;4484130;32;33803;-67
2021/03/04 11:11:15;;;;;;;12.50;8.00;;;;;;;24.74;33.63;99825.13;4484458;32;34594;-62
2021/03/04 11:13:42;;;;;;;14.63;7.65;;;;;;;24.73;33.69;99818.00;4484588;32;33458;-69
2021/03/04 11:16:10;;;;;;;14.10;7.82;;;;;;;24.71;33.73;99814.66;4484103;32;33030;-69
2021/03/04 11:18:37;;;;;;;14.43;7.75;;;;;;;24.69;33.85;99817.63;4484113;32;34754;-60
2021/03/04 11:21:04;;;;;;;13.85;8.38;;;;;;;24.64;33.94;99807.44;4484569;32;33812;-63
2021/03/04 11:23:32;;;;;;;19.35;7.70;;;;;;;24.67;33.97;99803.41;4484222;32;34199;-68
2021/03/04 11:25:59;;;;;;;19.95;8.30;;;;;;;24.63;33.92;99805.78;4484390;32;34239;-67
2021/03/04 11:28:27;;;;;;;15.40;7.60;;;;;;;24.61;33.94;99804.34;4484122;32;33749;-67
2021/03/04 11:30:56;;;;;;;15.50;8.27;;;;;;;24.58;33.98;99789.28;4484040;32;33840;-65